createdAt,value
2023-05-08T00:01:42.046Z,100561.55
2023-05-08T00:04:10.157Z,100568.27
2023-05-08T00:06:38.031Z,100564.41
2023-05-08T00:09:05.996Z,100564.03
2023-05-08T00:11:33.781Z,100566.07
2023-05-08T00:14:01.605Z,100565.95
2023-05-08T00:16:29.918Z,100565.05
2023-05-08T00:18:57.724Z,100565.66
2023-05-08T00:21:25.456Z,100564.11
2023-05-08T00:23:53.171Z,100564.13
2023-05-08T00:26:21.763Z,100563.77
2023-05-08T00:28:49.525Z,100563.59
2023-05-08T00:31:17.562Z,100566.17
2023-05-08T00:33:45.384Z,100563.77
2023-05-08T00:36:15.687Z,100561.45
2023-05-08T00:38:43.769Z,100559.80
2023-05-08T00:41:11.469Z,100561.96
2023-05-08T00:43:40.141Z,100564.58
2023-05-08T00:46:10.173Z,100565.73
2023-05-08T00:48:38.650Z,100566.00
2023-05-08T00:51:08.268Z,100569.23
2023-05-08T00:53:37.402Z,100575.99
2023-05-08T00:56:05.684Z,100575.95
2023-05-08T00:58:33.606Z,100578.06
2023-05-08T01:01:01.550Z,100578.34
2023-05-08T01:03:29.764Z,100580.52
2023-05-08T01:05:57.651Z,100578.73
2023-05-08T01:08:25.608Z,100574.57
2023-05-08T01:11:12.094Z,100573.59
2023-05-08T01:13:58.757Z,100577.83
2023-05-08T01:16:35.857Z,100582.84
2023-05-08T01:19:22.399Z,100585.05
2023-05-08T01:21:56.122Z,100586.79
2023-05-08T01:24:34.044Z,100588.20
2023-05-08T01:27:14.694Z,100588.45
2023-05-08T01:30:01.183Z,100592.09
2023-05-08T01:32:37.520Z,100592.02
2023-05-08T01:35:08.765Z,100590.14
2023-05-08T01:37:59.039Z,100586.92
2023-05-08T01:40:45.527Z,100589.98
2023-05-08T01:43:19.908Z,100592.89
2023-05-08T01:45:50.297Z,100590.48
2023-05-08T01:48:22.684Z,100590.69
2023-05-08T01:50:55.826Z,100587.46
2023-05-08T01:53:26.240Z,100592.73
2023-05-08T01:55:57.133Z,100589.59
2023-05-08T01:58:25.578Z,100586.63
2023-05-08T02:00:53.739Z,100591.38
2023-05-08T02:03:23.721Z,100592.08
2023-05-08T02:05:52.323Z,100589.71
2023-05-08T02:08:22.498Z,100587.85
2023-05-08T02:10:51.800Z,100588.54
2023-05-08T02:13:21.500Z,100591.34
2023-05-08T02:15:50.235Z,100593.73
2023-05-08T02:18:22.348Z,100595.26
2023-05-08T02:20:51.494Z,100593.49
2023-05-08T02:23:20.785Z,100595.67
2023-05-08T02:25:49.913Z,100595.98
2023-05-08T02:28:18.745Z,100596.23
2023-05-08T02:30:47.348Z,100595.36
2023-05-08T02:33:16.223Z,100599.82
2023-05-08T02:35:45.984Z,100602.79
2023-05-08T02:38:14.618Z,100605.59
2023-05-08T02:40:46.030Z,100604.80
2023-05-08T02:43:13.896Z,100606.64
2023-05-08T02:45:48.756Z,100611.21
2023-05-08T02:48:25.009Z,100610.19
2023-05-08T02:51:20.069Z,100608.65
2023-05-08T02:53:52.987Z,100606.16
2023-05-08T02:56:38.293Z,100605.48
2023-05-08T02:59:13.123Z,100606.38
2023-05-08T03:01:44.253Z,100605.87
2023-05-08T03:04:15.560Z,100606.48
2023-05-08T03:06:45.769Z,100611.48
2023-05-08T03:09:19.159Z,100607.84
2023-05-08T03:11:49.676Z,100612.98
2023-05-08T03:14:20.744Z,100607.72
2023-05-08T03:16:50.674Z,100612.11
2023-05-08T03:19:27.273Z,100614.89
2023-05-08T03:21:55.963Z,100622.05
2023-05-08T03:24:24.484Z,100631.73
2023-05-08T03:26:52.615Z,100634.33
2023-05-08T03:29:20.850Z,100632.70
2023-05-08T03:31:48.966Z,100632.81
2023-05-08T03:34:19.254Z,100633.51
2023-05-08T03:36:47.109Z,100635.30
2023-05-08T03:39:15.651Z,100635.21
2023-05-08T03:41:43.716Z,100641.30
2023-05-08T03:44:12.143Z,100642.95
2023-05-08T03:46:40.864Z,100645.14
2023-05-08T03:49:09.563Z,100645.25
2023-05-08T03:51:40.315Z,100645.48
2023-05-08T03:54:08.851Z,100643.94
2023-05-08T03:56:36.868Z,100643.05
2023-05-08T03:59:17.340Z,100642.39
2023-05-08T04:02:18.188Z,100645.25
2023-05-08T04:04:48.186Z,100645.83
2023-05-08T04:07:37.576Z,100647.22
2023-05-08T04:10:13.671Z,100647.05
2023-05-08T04:12:51.925Z,100651.62
2023-05-08T04:15:24.638Z,100654.39
2023-05-08T04:17:59.254Z,100657.83
2023-05-08T04:20:27.664Z,100662.70
2023-05-08T04:22:57.878Z,100663.36
2023-05-08T04:25:26.472Z,100662.31
2023-05-08T04:27:56.357Z,100663.70
2023-05-08T04:30:25.002Z,100659.19
2023-05-08T04:32:53.924Z,100664.06
2023-05-08T04:35:21.981Z,100667.71
2023-05-08T04:37:50.273Z,100670.52
2023-05-08T04:40:18.232Z,100673.31
2023-05-08T04:42:47.936Z,100675.25
2023-05-08T04:45:17.817Z,100674.71
2023-05-08T04:47:46.022Z,100675.24
2023-05-08T04:50:14.486Z,100670.94
2023-05-08T04:52:43.037Z,100673.98
2023-05-08T04:55:11.705Z,100674.84
2023-05-08T04:57:39.860Z,100675.08
2023-05-08T05:00:08.090Z,100672.83
2023-05-08T05:02:39.119Z,100674.81
2023-05-08T05:05:08.092Z,100675.57
2023-05-08T05:07:35.945Z,100676.59
2023-05-08T05:10:04.275Z,100681.45
2023-05-08T05:12:32.896Z,100682.93
2023-05-08T05:15:00.772Z,100682.19
2023-05-08T05:17:31.122Z,100681.61
2023-05-08T05:19:59.951Z,100679.98
2023-05-08T05:22:28.769Z,100678.72
2023-05-08T05:24:56.777Z,100679.85
2023-05-08T05:27:25.246Z,100680.11
2023-05-08T05:29:53.006Z,100685.60
2023-05-08T05:32:21.161Z,100687.57
2023-05-08T05:34:49.633Z,100687.75
2023-05-08T05:37:17.532Z,100686.31
2023-05-08T05:39:45.620Z,100686.39
2023-05-08T05:42:14.001Z,100692.42
2023-05-08T05:44:42.203Z,100694.13
2023-05-08T05:47:11.131Z,100690.42
2023-05-08T05:49:43.047Z,100688.91
2023-05-08T05:52:11.682Z,100688.61
2023-05-08T05:54:39.598Z,100690.63
2023-05-08T05:57:08.112Z,100692.91
2023-05-08T05:59:35.900Z,100694.86
2023-05-08T06:02:04.048Z,100692.27
2023-05-08T06:04:32.058Z,100688.98
2023-05-08T06:06:59.914Z,100685.17
2023-05-08T06:09:27.637Z,100688.41
2023-05-08T06:11:55.636Z,100691.00
2023-05-08T06:14:23.548Z,100693.60
2023-05-08T06:16:51.494Z,100694.61
2023-05-08T06:19:20.172Z,100694.42
2023-05-08T06:21:47.858Z,100697.67
2023-05-08T06:24:16.124Z,100697.09
2023-05-08T06:26:44.069Z,100695.50
2023-05-08T06:29:11.950Z,100699.73
2023-05-08T06:31:39.665Z,100696.83
2023-05-08T06:34:08.213Z,100695.05
2023-05-08T06:36:36.635Z,100695.00
2023-05-08T06:39:06.019Z,100696.65
2023-05-08T06:41:33.965Z,100695.23
2023-05-08T06:44:01.629Z,100694.20
2023-05-08T06:46:30.008Z,100700.88
2023-05-08T06:48:57.855Z,100699.70
2023-05-08T06:51:26.233Z,100700.42
2023-05-08T06:53:53.982Z,100702.16
2023-05-08T06:56:22.727Z,100699.58
2023-05-08T06:58:56.935Z,100699.11
2023-05-08T07:01:32.855Z,100699.12
2023-05-08T07:04:01.342Z,100700.70
2023-05-08T07:06:30.855Z,100707.75
2023-05-08T07:08:58.946Z,100710.02
2023-05-08T07:11:26.764Z,100714.48
2023-05-08T07:13:54.598Z,100718.58
2023-05-08T07:16:22.456Z,100719.17
2023-05-08T07:18:50.329Z,100720.36
2023-05-08T07:21:20.195Z,100720.63
2023-05-08T07:23:50.315Z,100715.43
2023-05-08T07:26:18.575Z,100720.00
2023-05-08T07:28:46.598Z,100727.11
2023-05-08T07:31:15.163Z,100726.26
2023-05-08T07:33:43.084Z,100727.11
2023-05-08T07:36:11.138Z,100727.48
2023-05-08T07:38:38.868Z,100726.91
2023-05-08T07:41:07.039Z,100725.65
2023-05-08T07:43:34.728Z,100726.16
2023-05-08T07:46:02.870Z,100727.77
2023-05-08T07:48:30.563Z,100725.81
2023-05-08T07:50:58.254Z,100727.90
2023-05-08T07:53:26.042Z,100720.70
2023-05-08T07:55:53.682Z,100720.59
2023-05-08T07:58:23.665Z,100721.86
2023-05-08T08:00:52.139Z,100717.36
2023-05-08T08:03:20.058Z,100717.10
2023-05-08T08:05:48.090Z,100715.70
2023-05-08T08:08:16.218Z,100717.45
2023-05-08T08:10:43.920Z,100713.60
2023-05-08T08:13:11.756Z,100723.92
2023-05-08T08:15:39.828Z,100720.89
2023-05-08T08:18:07.839Z,100723.81
2023-05-08T08:20:35.588Z,100722.48
2023-05-08T08:23:03.565Z,100721.54
2023-05-08T08:25:31.340Z,100721.55
2023-05-08T08:27:59.124Z,100722.70
2023-05-08T08:30:27.341Z,100726.92
2023-05-08T08:32:55.667Z,100730.29
2023-05-08T08:35:29.195Z,100730.06
2023-05-08T08:37:57.295Z,100730.55
2023-05-08T08:40:25.119Z,100729.77
2023-05-08T08:42:52.795Z,100730.38
2023-05-08T08:45:20.610Z,100725.19
2023-05-08T08:47:48.429Z,100727.20
2023-05-08T08:50:19.475Z,100721.34
2023-05-08T08:52:52.048Z,100722.91
2023-05-08T08:55:20.476Z,100724.76
2023-05-08T08:57:57.489Z,100728.15
2023-05-08T09:00:28.617Z,100726.65
2023-05-08T09:02:56.625Z,100725.61
2023-05-08T09:05:26.437Z,100722.81
2023-05-08T09:07:54.492Z,100722.84
2023-05-08T09:10:23.482Z,100723.27
2023-05-08T09:12:51.663Z,100720.64
2023-05-08T09:15:19.816Z,100721.34
2023-05-08T09:17:47.792Z,100727.28
2023-05-08T09:20:18.863Z,100728.72
2023-05-08T09:22:47.266Z,100729.52
2023-05-08T09:25:15.065Z,100731.77
2023-05-08T09:27:42.983Z,100735.64
2023-05-08T09:30:12.605Z,100733.58
2023-05-08T09:32:42.351Z,100730.03
2023-05-08T09:35:11.767Z,100728.61
2023-05-08T09:37:40.723Z,100726.45
2023-05-08T09:40:14.393Z,100733.31
2023-05-08T09:42:42.476Z,100722.11
2023-05-08T09:45:10.926Z,100719.36
2023-05-08T09:47:39.593Z,100720.70
2023-05-08T09:50:10.371Z,100716.76
2023-05-08T09:52:38.827Z,100714.29
2023-05-08T09:55:07.001Z,100714.70
2023-05-08T09:57:39.358Z,100715.90
2023-05-08T10:00:11.533Z,100716.27
2023-05-08T10:02:40.875Z,100718.55
2023-05-08T10:05:25.273Z,100721.78
2023-05-08T10:07:53.708Z,100720.66
2023-05-08T10:10:28.178Z,100719.83
2023-05-08T10:12:56.911Z,100719.98
2023-05-08T10:15:31.626Z,100728.45
2023-05-08T10:18:05.033Z,100723.88
2023-05-08T10:20:33.749Z,100721.09
2023-05-08T10:23:03.485Z,100723.25
2023-05-08T10:25:32.900Z,100720.27
2023-05-08T10:28:27.226Z,100714.88
2023-05-08T10:30:57.003Z,100714.73
2023-05-08T10:33:31.057Z,100715.89
2023-05-08T10:36:00.263Z,100713.65
2023-05-08T10:38:28.275Z,100711.63
2023-05-08T10:40:59.784Z,100712.11
2023-05-08T10:43:29.225Z,100710.77
2023-05-08T10:45:58.107Z,100709.84
2023-05-08T10:48:31.632Z,100707.12
2023-05-08T10:51:18.073Z,100707.64
2023-05-08T10:53:52.001Z,100706.07
2023-05-08T10:56:26.229Z,100701.92
2023-05-08T10:58:58.011Z,100700.48
2023-05-08T11:01:26.382Z,100699.84
2023-05-08T11:03:56.010Z,100696.00
2023-05-08T11:06:43.082Z,100697.13
2023-05-08T11:09:19.765Z,100698.70
2023-05-08T11:11:52.814Z,100692.70
2023-05-08T11:14:21.548Z,100696.33
2023-05-08T11:16:59.900Z,100693.09
2023-05-08T11:19:28.420Z,100688.28
2023-05-08T11:22:12.694Z,100685.09
2023-05-08T11:24:46.907Z,100687.06
2023-05-08T11:27:15.978Z,100688.05
2023-05-08T11:29:45.067Z,100688.90
2023-05-08T11:32:12.777Z,100687.58
2023-05-08T11:34:43.985Z,100686.37
2023-05-08T11:37:16.677Z,100690.88
2023-05-08T11:39:44.583Z,100684.52
2023-05-08T11:42:24.429Z,100691.89
2023-05-08T11:45:06.566Z,100691.19
2023-05-08T11:47:38.747Z,100688.73
2023-05-08T11:50:07.945Z,100685.36
2023-05-08T11:52:36.284Z,100680.77
2023-05-08T11:55:04.756Z,100684.18
2023-05-08T11:57:33.325Z,100683.02
2023-05-08T12:00:05.224Z,100682.55
2023-05-08T12:02:43.973Z,100683.09
2023-05-08T12:05:12.004Z,100682.11
2023-05-08T12:07:44.145Z,100689.38
2023-05-08T12:10:12.599Z,100694.97
2023-05-08T12:12:41.328Z,100696.59
2023-05-08T12:15:10.352Z,100695.98
2023-05-08T12:17:38.303Z,100687.48
2023-05-08T12:20:15.880Z,100690.02
2023-05-08T12:22:54.326Z,100691.75
2023-05-08T12:25:22.112Z,100687.95
2023-05-08T12:27:49.880Z,100684.03
2023-05-08T12:30:18.286Z,100688.84
2023-05-08T12:32:47.249Z,100682.50
2023-05-08T12:35:15.974Z,100686.79
2023-05-08T12:37:44.936Z,100689.39
2023-05-08T12:40:29.467Z,100691.64
2023-05-08T12:42:57.486Z,100692.15
2023-05-08T12:45:26.873Z,100690.10
2023-05-08T12:47:58.642Z,100687.98
2023-05-08T12:50:26.435Z,100691.11
2023-05-08T12:52:54.341Z,100685.11
2023-05-08T12:55:25.684Z,100681.88
2023-05-08T12:58:04.394Z,100680.71
2023-05-08T13:00:42.752Z,100689.66
2023-05-08T13:03:12.030Z,100687.70
2023-05-08T13:05:43.868Z,100684.40
2023-05-08T13:08:11.632Z,100682.34
2023-05-08T13:10:55.881Z,100676.30
2023-05-08T13:13:25.817Z,100677.69
2023-05-08T13:15:55.105Z,100685.35
2023-05-08T13:18:27.729Z,100684.19
2023-05-08T13:20:56.302Z,100685.04
2023-05-08T13:23:24.288Z,100682.11
2023-05-08T13:25:52.019Z,100673.09
2023-05-08T13:28:19.716Z,100676.30
2023-05-08T13:30:47.438Z,100675.84
2023-05-08T13:33:15.429Z,100680.17
2023-05-08T13:35:43.261Z,100683.46
2023-05-08T13:38:11.107Z,100685.83
2023-05-08T13:40:38.933Z,100688.38
2023-05-08T13:43:06.966Z,100688.00
2023-05-08T13:45:34.727Z,100685.61
2023-05-08T13:48:02.690Z,100687.84
2023-05-08T13:50:30.593Z,100692.16
2023-05-08T13:52:58.298Z,100690.41
2023-05-08T13:55:26.376Z,100692.42
2023-05-08T13:57:54.177Z,100694.86
2023-05-08T14:00:21.965Z,100694.48
2023-05-08T14:02:52.243Z,100692.46
2023-05-08T14:05:20.971Z,100690.75
2023-05-08T14:07:48.662Z,100689.80
2023-05-08T14:10:17.372Z,100682.09
2023-05-08T14:12:45.759Z,100683.25
2023-05-08T14:15:13.714Z,100683.97
2023-05-08T14:17:42.434Z,100685.90
2023-05-08T14:20:12.061Z,100689.21
2023-05-08T14:22:40.178Z,100687.91
2023-05-08T14:25:08.447Z,100691.02
2023-05-08T14:27:36.385Z,100688.92
2023-05-08T14:30:04.366Z,100688.05
2023-05-08T14:32:32.432Z,100685.99
2023-05-08T14:35:00.335Z,100687.00
2023-05-08T14:37:28.035Z,100691.21
2023-05-08T14:39:57.781Z,100689.14
2023-05-08T14:42:25.612Z,100691.09
2023-05-08T14:44:53.526Z,100689.05
2023-05-08T14:47:23.630Z,100691.50
2023-05-08T14:49:53.631Z,100695.43
2023-05-08T14:52:21.610Z,100702.07
2023-05-08T14:54:53.818Z,100702.17
2023-05-08T14:57:22.041Z,100702.39
2023-05-08T14:59:55.068Z,100707.85
2023-05-08T15:02:24.134Z,100706.45
2023-05-08T15:04:52.019Z,100704.20
2023-05-08T15:07:19.739Z,100702.80
2023-05-08T15:09:48.069Z,100706.09
2023-05-08T15:12:15.747Z,100707.31
2023-05-08T15:14:43.441Z,100708.02
2023-05-08T15:17:11.193Z,100702.13
2023-05-08T15:19:39.280Z,100697.18
2023-05-08T15:22:07.143Z,100695.09
2023-05-08T15:24:35.198Z,100691.85
2023-05-08T15:27:03.099Z,100693.98
2023-05-08T15:29:30.828Z,100692.36
2023-05-08T15:31:58.576Z,100694.30
2023-05-08T15:34:29.123Z,100692.46
2023-05-08T15:37:00.317Z,100690.05
2023-05-08T15:39:28.153Z,100689.77
2023-05-08T15:41:56.348Z,100691.20
2023-05-08T15:44:26.605Z,100697.23
2023-05-08T15:46:56.673Z,100693.41
2023-05-08T15:49:25.987Z,100693.95
2023-05-08T15:51:54.231Z,100698.48
2023-05-08T15:54:22.374Z,100693.35
2023-05-08T15:56:50.387Z,100698.49
2023-05-08T15:59:18.243Z,100695.15
2023-05-08T16:01:47.075Z,100693.98
2023-05-08T16:04:15.028Z,100693.60
2023-05-08T16:06:42.784Z,100693.21
2023-05-08T16:09:10.584Z,100692.15
2023-05-08T16:11:38.457Z,100690.86
2023-05-08T16:14:06.253Z,100691.08
2023-05-08T16:16:34.052Z,100693.08
2023-05-08T16:19:01.805Z,100693.54
2023-05-08T16:21:29.619Z,100690.92
2023-05-08T16:23:57.835Z,100688.73
2023-05-08T16:26:26.315Z,100691.42
2023-05-08T16:28:54.165Z,100690.98
2023-05-08T16:31:22.031Z,100697.63
2023-05-08T16:33:50.084Z,100701.38
2023-05-08T16:36:17.808Z,100699.47
2023-05-08T16:38:45.741Z,100702.50
2023-05-08T16:41:13.787Z,100711.02
2023-05-08T16:43:41.608Z,100705.48
2023-05-08T16:46:09.391Z,100707.36
2023-05-08T16:48:37.416Z,100708.15
2023-05-08T16:51:05.112Z,100706.91
2023-05-08T16:53:33.408Z,100712.36
2023-05-08T16:56:03.030Z,100717.02
2023-05-08T16:58:30.754Z,100718.52
2023-05-08T17:00:58.555Z,100726.25
2023-05-08T17:03:26.774Z,100732.31
2023-05-08T17:05:54.642Z,100741.06
2023-05-08T17:08:22.508Z,100739.63
2023-05-08T17:10:50.491Z,100747.27
2023-05-08T17:13:18.365Z,100747.39
2023-05-08T17:15:46.425Z,100751.89
2023-05-08T17:18:14.366Z,100758.23
2023-05-08T17:20:42.428Z,100762.58
2023-05-08T17:23:10.184Z,100764.00
2023-05-08T17:25:38.105Z,100767.84
2023-05-08T17:28:06.086Z,100774.71
2023-05-08T17:30:33.956Z,100776.25
2023-05-08T17:33:01.830Z,100782.14
2023-05-08T17:35:29.585Z,100784.48
2023-05-08T17:37:57.346Z,100787.13
2023-05-08T17:40:26.281Z,100788.84
2023-05-08T17:42:54.050Z,100790.96
2023-05-08T17:45:21.974Z,100795.54
2023-05-08T17:47:49.815Z,100796.56
2023-05-08T17:50:17.777Z,100800.34
2023-05-08T17:52:46.251Z,100803.44
2023-05-08T17:55:14.292Z,100810.16
2023-05-08T17:57:42.027Z,100811.25
2023-05-08T18:00:10.045Z,100809.29
2023-05-08T18:02:39.850Z,100816.38
2023-05-08T18:05:09.035Z,100823.38
2023-05-08T18:07:36.630Z,100824.35
2023-05-08T18:10:05.099Z,100827.32
2023-05-08T18:12:32.911Z,100832.11
2023-05-08T18:15:03.421Z,100837.54
2023-05-08T18:17:31.423Z,100839.59
2023-05-08T18:19:59.719Z,100846.83
2023-05-08T18:22:27.578Z,100852.40
2023-05-08T18:24:58.270Z,100854.64
2023-05-08T18:27:26.659Z,100859.31
2023-05-08T18:29:54.514Z,100863.98
2023-05-08T18:32:22.779Z,100871.00
2023-05-08T18:34:51.027Z,100872.05
2023-05-08T18:37:18.757Z,100877.16
2023-05-08T18:39:46.562Z,100881.27
2023-05-08T18:42:14.314Z,100885.28
2023-05-08T18:44:42.095Z,100895.36
2023-05-08T18:47:09.884Z,100899.49
2023-05-08T18:49:37.546Z,100896.04
2023-05-08T18:52:05.343Z,100899.36
2023-05-08T18:54:33.042Z,100904.30
2023-05-08T18:57:00.842Z,100902.80
2023-05-08T18:59:28.490Z,100902.25
2023-05-08T19:01:56.451Z,100894.29
2023-05-08T19:04:24.249Z,100894.39
2023-05-08T19:06:52.033Z,100893.94
2023-05-08T19:09:20.028Z,100896.77
2023-05-08T19:11:47.836Z,100895.77
2023-05-08T19:14:15.906Z,100892.05
2023-05-08T19:16:43.622Z,100893.86
2023-05-08T19:19:11.489Z,100889.45
2023-05-08T19:21:39.383Z,100886.79
2023-05-08T19:24:07.882Z,100889.45
2023-05-08T19:26:35.845Z,100892.58
2023-05-08T19:29:03.754Z,100897.32
2023-05-08T19:31:31.602Z,100898.60
2023-05-08T19:33:59.386Z,100898.91
2023-05-08T19:36:27.421Z,100900.81
2023-05-08T19:38:56.266Z,100898.91
2023-05-08T19:41:24.350Z,100894.51
2023-05-08T19:43:52.024Z,100893.61
2023-05-08T19:46:20.561Z,100891.15
2023-05-08T19:48:48.368Z,100895.21
2023-05-08T19:51:16.640Z,100894.43
2023-05-08T19:53:44.636Z,100893.68
2023-05-08T19:56:12.423Z,100884.96
2023-05-08T19:58:40.661Z,100887.30
2023-05-08T20:01:08.467Z,100889.92
2023-05-08T20:03:36.406Z,100895.91
2023-05-08T20:06:04.353Z,100894.92
2023-05-08T20:08:32.126Z,100895.13
2023-05-08T20:11:02.458Z,100896.39
2023-05-08T20:13:30.203Z,100892.63
2023-05-08T20:15:58.905Z,100894.34
2023-05-08T20:18:26.902Z,100893.11
2023-05-08T20:20:54.618Z,100893.90
2023-05-08T20:23:22.862Z,100896.52
2023-05-08T20:25:54.287Z,100888.75
2023-05-08T20:28:25.141Z,100886.23
2023-05-08T20:30:53.110Z,100887.72
2023-05-08T20:33:21.007Z,100888.59
2023-05-08T20:35:48.897Z,100891.27
2023-05-08T20:38:16.751Z,100891.63
2023-05-08T20:40:44.924Z,100897.36
2023-05-08T20:43:13.223Z,100899.65
2023-05-08T20:45:40.877Z,100898.77
2023-05-08T20:48:08.591Z,100900.17
2023-05-08T20:50:36.346Z,100903.02
2023-05-08T20:53:04.464Z,100909.95
2023-05-08T20:55:32.346Z,100909.63
2023-05-08T20:58:00.647Z,100905.50
2023-05-08T21:00:28.460Z,100905.59
2023-05-08T21:02:56.555Z,100902.59
2023-05-08T21:05:24.657Z,100899.29
2023-05-08T21:07:52.735Z,100904.36
2023-05-08T21:10:20.432Z,100904.64
2023-05-08T21:12:48.814Z,100902.41
2023-05-08T21:15:16.834Z,100898.86
2023-05-08T21:17:44.534Z,100894.64
2023-05-08T21:20:12.865Z,100895.84
2023-05-08T21:22:40.795Z,100894.75
2023-05-08T21:25:18.446Z,100897.88
2023-05-08T21:27:46.369Z,100902.59
2023-05-08T21:30:16.654Z,100899.52
2023-05-08T21:32:45.007Z,100892.98
2023-05-08T21:35:13.616Z,100894.59
2023-05-08T21:37:41.593Z,100894.14
2023-05-08T21:40:09.949Z,100890.27
2023-05-08T21:42:38.650Z,100889.66
2023-05-08T21:45:07.388Z,100885.38
2023-05-08T21:47:35.736Z,100885.10
2023-05-08T21:50:03.591Z,100882.98
2023-05-08T21:52:31.538Z,100883.32
2023-05-08T21:54:59.473Z,100881.83
2023-05-08T21:57:27.219Z,100878.94
2023-05-08T21:59:54.971Z,100877.17
2023-05-08T22:02:23.056Z,100877.38
2023-05-08T22:04:50.901Z,100874.79
2023-05-08T22:07:21.005Z,100877.25
2023-05-08T22:09:49.125Z,100875.66
2023-05-08T22:12:16.978Z,100870.64
2023-05-08T22:14:44.655Z,100867.91
2023-05-08T22:17:12.630Z,100871.06
2023-05-08T22:19:40.332Z,100876.92
2023-05-08T22:22:08.262Z,100877.92
2023-05-08T22:24:35.936Z,100880.08
2023-05-08T22:27:03.712Z,100880.40
2023-05-08T22:29:31.731Z,100882.81
2023-05-08T22:31:59.440Z,100884.72
2023-05-08T22:34:27.332Z,100881.70
2023-05-08T22:36:55.325Z,100880.25
2023-05-08T22:39:23.051Z,100875.18
2023-05-08T22:41:50.804Z,100874.05
2023-05-08T22:44:18.512Z,100875.70
2023-05-08T22:46:46.316Z,100877.41
2023-05-08T22:49:14.362Z,100876.59
2023-05-08T22:51:42.147Z,100874.89
2023-05-08T22:54:09.948Z,100871.25
2023-05-08T22:56:38.478Z,100871.44
2023-05-08T22:59:06.779Z,100872.99
2023-05-08T23:01:34.468Z,100871.48
2023-05-08T23:04:02.309Z,100871.73
2023-05-08T23:06:30.490Z,100875.55
2023-05-08T23:08:58.523Z,100876.27
2023-05-08T23:11:26.965Z,100877.29
2023-05-08T23:13:54.975Z,100877.23
2023-05-08T23:16:22.865Z,100877.20
2023-05-08T23:18:51.047Z,100877.02
2023-05-08T23:21:18.900Z,100877.52
2023-05-08T23:23:47.942Z,100876.05
2023-05-08T23:26:15.889Z,100876.17
2023-05-08T23:28:43.604Z,100876.58
2023-05-08T23:31:11.430Z,100877.16
2023-05-08T23:33:39.617Z,100877.60
2023-05-08T23:36:07.941Z,100875.27
2023-05-08T23:38:35.626Z,100873.98
2023-05-08T23:41:03.508Z,100873.01
2023-05-08T23:43:31.361Z,100868.77
2023-05-08T23:45:59.275Z,100870.48
2023-05-08T23:48:27.573Z,100868.64
2023-05-08T23:50:55.312Z,100865.90
2023-05-08T23:53:23.487Z,100865.85
2023-05-08T23:55:52.608Z,100859.11
2023-05-08T23:58:20.481Z,100859.35
